Time;durP1;ratioP1;P1;durP2;ratioP2;P2;SDS_P1;SDS_P2;PMS_P1;PMS_P2;Temp;Humidity;BMP_temperature;BMP_pressure;BME280_temperature;BME280_humidity;BME280_pressure;Samples;Min_cycle;Max_cycle;Signal;HPM_P1;HPM_P2
2022/10/01 00:02:50;;;;;;;3.38;2.45;;;;;;;11.13;57.35;99534.47;10244900;29;20417;-80
2022/10/01 00:07:53;;;;;;;5.00;2.60;;;;;;;11.00;57.89;99524.06;10226998;29;20055;-79
2022/10/01 00:12:57;;;;;;;6.38;2.67;;;;;;;11.21;57.26;99515.75;10228698;29;20436;-80
2022/10/01 00:18:00;;;;;;;3.00;2.67;;;;;;;11.10;57.51;99507.88;10220339;29;20052;-79
2022/10/01 00:23:03;;;;;;;4.00;2.75;;;;;;;11.08;57.48;99496.41;10223018;29;20040;-76
2022/10/01 00:28:08;;;;;;;2.45;2.25;;;;;;;11.17;57.68;99490.19;10228496;29;20047;-80
2022/10/01 00:33:10;;;;;;;3.20;1.90;;;;;;;11.04;57.44;99485.97;10234757;29;20276;-80
2022/10/01 00:38:14;;;;;;;2.85;2.47;;;;;;;11.04;57.67;99483.28;10228169;28;20075;-78
2022/10/01 00:43:22;;;;;;;3.90;2.40;;;;;;;11.34;56.87;99467.03;10247015;29;20043;-79
2022/10/01 00:48:27;;;;;;;5.45;2.53;;;;;;;11.09;57.64;99464.03;10245514;28;20089;-78
2022/10/01 00:53:30;;;;;;;5.80;2.80;;;;;;;11.26;56.98;99459.72;10239146;29;20523;-79
2022/10/01 00:58:34;;;;;;;5.35;2.35;;;;;;;11.15;57.46;99443.78;10254218;28;20078;-79
2022/10/01 01:03:38;;;;;;;3.20;2.53;;;;;;;11.11;57.65;99437.84;10236174;29;20142;-78
2022/10/01 01:08:41;;;;;;;3.08;2.70;;;;;;;11.06;57.86;99421.34;10226869;29;20126;-79
2022/10/01 01:13:57;;;;;;;3.00;2.63;;;;;;;11.10;57.93;99430.78;10230695;29;20047;-79
2022/10/01 01:19:04;;;;;;;6.35;2.92;;;;;;;11.16;58.00;99416.78;10238019;28;20051;-79
2022/10/01 01:24:46;;;;;;;3.63;2.55;;;;;;;11.19;57.94;99416.47;10235900;29;20122;-80
2022/10/01 01:29:59;;;;;;;8.18;2.70;;;;;;;11.08;58.45;99407.72;10238036;28;20047;-78
2022/10/01 01:35:07;;;;;;;6.60;2.70;;;;;;;11.09;58.07;99410.28;10252713;28;20078;-80
2022/10/01 01:40:13;;;;;;;4.13;2.17;;;;;;;11.04;58.02;99396.44;10238738;28;20044;-78
2022/10/01 01:45:23;;;;;;;1.95;1.67;;;;;;;11.09;58.03;99391.47;10240909;29;20536;-79
2022/10/01 01:50:30;;;;;;;2.92;2.60;;;;;;;11.27;57.55;99380.75;10230286;28;20050;-79
2022/10/01 01:55:36;;;;;;;3.15;2.33;;;;;;;11.35;57.38;99366.53;10242966;29;20039;-78
2022/10/01 02:00:40;;;;;;;5.07;2.40;;;;;;;11.26;57.95;99363.78;10228680;28;20036;-80
2022/10/01 02:05:55;;;;;;;5.40;3.03;;;;;;;11.24;57.74;99355.03;10220568;29;20512;-79
2022/10/01 02:11:09;;;;;;;2.70;2.50;;;;;;;11.30;57.85;99341.97;10253564;29;20058;-79
2022/10/01 02:16:22;;;;;;;3.53;2.40;;;;;;;11.38;57.80;99344.72;10249691;29;20093;-80
2022/10/01 02:21:31;;;;;;;3.95;2.40;;;;;;;11.35;58.30;99339.66;10250650;29;20044;-80
2022/10/01 02:26:36;;;;;;;4.07;3.00;;;;;;;11.31;57.93;99328.38;10236857;29;20043;-78
2022/10/01 02:31:41;;;;;;;3.10;2.58;;;;;;;11.42;58.28;99314.69;10222334;29;20489;-80
2022/10/01 02:36:45;;;;;;;4.65;2.97;;;;;;;11.36;60.47;99323.38;10245029;29;20074;-79
2022/10/01 02:41:51;;;;;;;3.88;2.95;;;;;;;10.94;64.93;99310.53;10232482;29;20063;-80
2022/10/01 02:47:00;;;;;;;5.78;2.80;;;;;;;10.07;69.58;99309.19;10250158;29;20047;-81
2022/10/01 02:52:09;;;;;;;7.05;4.10;;;;;;;9.85;73.38;99307.69;10243033;28;20094;-78
2022/10/01 02:57:26;;;;;;;5.50;3.50;;;;;;;9.45;76.01;99306.06;10238557;29;20079;-79
2022/10/01 03:02:31;;;;;;;7.28;4.63;;;;;;;9.31;78.17;99300.31;10212669;29;20052;-78
2022/10/01 03:07:35;;;;;;;7.75;4.85;;;;;;;9.22;79.99;99296.66;10225093;29;20406;-80
2022/10/01 03:12:43;;;;;;;7.15;5.55;;;;;;;9.21;81.04;99292.28;10243056;29;20077;-79
2022/10/01 03:17:50;;;;;;;6.97;4.55;;;;;;;9.20;81.86;99282.56;10247899;29;20103;-80
2022/10/01 03:22:53;;;;;;;14.13;6.32;;;;;;;9.09;83.05;99259.44;10239547;28;20134;-79
2022/10/01 03:27:57;;;;;;;;;;;;;;;9.26;83.04;99247.97;10230462;29;20071;-80
2022/10/01 03:33:01;;;;;;;6.00;5.50;;;;;;;8.80;84.16;99246.91;10228241;29;19946;-81
2022/10/01 03:38:04;;;;;;;9.10;5.90;;;;;;;8.95;84.47;99223.22;10240993;28;20051;-78
2022/10/01 03:43:07;;;;;;;8.10;5.68;;;;;;;9.18;84.20;99201.47;10255002;29;20600;-81
2022/10/01 03:48:11;;;;;;;5.90;5.30;;;;;;;9.05;84.97;99181.19;10253878;28;20053;-79
2022/10/01 03:53:14;;;;;;;10.02;5.05;;;;;;;9.11;84.95;99161.03;10221896;29;20055;-80
2022/10/01 03:58:18;;;;;;;7.88;5.07;;;;;;;9.18;85.55;99155.91;10247830;28;20162;-81
2022/10/01 04:03:22;;;;;;;7.57;5.35;;;;;;;9.12;86.21;99146.63;10238816;29;20429;-78
2022/10/01 04:08:25;;;;;;;7.78;5.00;;;;;;;9.02;86.41;99152.03;10245669;28;20398;-80
2022/10/01 04:13:30;;;;;;;6.32;4.78;;;;;;;9.04;86.75;99147.34;10258429;29;20078;-79
2022/10/01 04:18:35;;;;;;;4.75;4.07;;;;;;;9.08;86.51;99136.34;10247969;29;20488;-79
2022/10/01 04:23:38;;;;;;;5.43;4.88;;;;;;;8.84;87.94;99135.84;10259248;29;20100;-76
2022/10/01 04:28:44;;;;;;;6.47;3.88;;;;;;;8.55;88.23;99133.19;10230276;29;20051;-78
2022/10/01 04:33:48;;;;;;;6.72;4.10;;;;;;;8.63;89.44;99127.13;10231494;29;20048;-77
2022/10/01 04:38:51;;;;;;;4.43;4.03;;;;;;;8.77;88.90;99118.66;10229977;28;20129;-77
2022/10/01 04:44:01;;;;;;;4.30;3.40;;;;;;;8.90;87.56;99123.72;10233370;29;20042;-77
2022/10/01 04:49:05;;;;;;;3.90;3.45;;;;;;;8.87;88.36;99121.31;10240788;28;20069;-76
2022/10/01 04:54:08;;;;;;;7.72;5.05;;;;;;;8.88;88.43;99114.97;10252800;29;20117;-77
2022/10/01 04:59:11;;;;;;;;;;;;;;;8.89;88.42;99103.28;10241026;29;20126;-78
2022/10/01 05:04:15;;;;;;;3.95;3.53;;;;;;;8.89;88.66;99099.75;10241726;29;19927;-76
2022/10/01 05:09:18;;;;;;;4.03;3.60;;;;;;;9.01;88.15;99093.22;10219922;29;20083;-75
2022/10/01 05:14:21;;;;;;;8.70;3.72;;;;;;;9.02;88.42;99093.09;10237656;29;20051;-77
2022/10/01 05:19:27;;;;;;;5.68;3.40;;;;;;;9.01;88.46;99087.88;10226575;29;20126;-77
2022/10/01 05:24:30;;;;;;;4.40;3.50;;;;;;;8.97;88.93;99084.66;10239881;29;20386;-76
2022/10/01 05:29:34;;;;;;;;;;;;;;;9.00;89.68;99076.31;10229902;28;20482;-77
2022/10/01 05:34:38;;;;;;;3.78;3.45;;;;;;;8.98;89.08;99080.97;10275459;23;19926;-78
2022/10/01 05:39:41;;;;;;;4.47;2.90;;;;;;;8.94;89.31;99074.25;10319844;28;20069;-78
2022/10/01 05:44:45;;;;;;;3.35;3.05;;;;;;;8.65;90.98;99087.69;10304179;28;20046;-78
2022/10/01 05:49:49;;;;;;;4.22;2.47;;;;;;;8.86;90.79;99083.97;10282036;28;20076;-77
2022/10/01 05:54:52;;;;;;;4.60;3.17;;;;;;;9.12;89.70;99063.59;10268793;28;20082;-78
2022/10/01 05:59:56;;;;;;;;;;;;;;;9.14;89.75;99050.06;10280977;28;20063;-78
2022/10/01 06:05:00;;;;;;;5.38;3.70;;;;;;;9.15;90.13;99049.06;10278328;28;19922;-79
2022/10/01 06:10:03;;;;;;;4.25;3.30;;;;;;;9.25;89.55;99048.03;10277902;28;20063;-78
2022/10/01 06:15:07;;;;;;;5.72;3.13;;;;;;;9.31;89.78;99043.06;10286375;28;20070;-78
2022/10/01 06:20:18;;;;;;;4.97;3.20;;;;;;;9.15;90.07;99055.25;10283169;28;20050;-78
2022/10/01 06:25:21;;;;;;;3.13;2.80;;;;;;;9.22;90.80;99055.53;10292215;28;20043;-79
2022/10/01 06:30:25;;;;;;;2.67;2.47;;;;;;;8.98;91.69;99062.22;10289845;28;20046;-78
2022/10/01 06:35:30;;;;;;;2.40;2.20;;;;;;;9.00;98.89;99062.94;10273402;28;20121;-78
2022/10/01 06:40:33;;;;;;;2.13;1.90;;;;;;;8.92;96.79;99062.81;10281732;28;20046;-78
2022/10/01 06:45:39;;;;;;;1.55;1.45;;;;;;;9.04;94.45;99056.28;10288317;28;20047;-79
2022/10/01 06:50:44;;;;;;;1.80;1.20;;;;;;;8.94;92.96;99059.97;10291712;28;20287;-78
2022/10/01 06:55:48;;;;;;;2.15;1.10;;;;;;;8.78;93.88;99060.63;10282363;28;20047;-79
2022/10/01 07:00:52;;;;;;;1.30;1.20;;;;;;;9.03;93.48;99053.75;10247844;28;20049;-78
2022/10/01 07:06:01;;;;;;;1.13;1.02;;;;;;;9.08;93.28;99037.22;10234343;28;20051;-79
2022/10/01 07:11:04;;;;;;;1.63;1.52;;;;;;;9.12;93.98;99050.19;10244739;28;20043;-79
2022/10/01 07:16:07;;;;;;;2.70;1.20;;;;;;;9.12;93.19;99049.34;10241176;28;20047;-79
2022/10/01 07:21:11;;;;;;;1.13;0.77;;;;;;;9.07;93.03;99063.19;10221441;28;20054;-78
2022/10/01 07:26:14;;;;;;;1.48;1.05;;;;;;;9.46;91.58;99054.97;10242502;28;20058;-79
2022/10/01 07:31:17;;;;;;;;;;;;;;;9.36;91.21;99052.34;10234509;28;20055;-80
2022/10/01 07:36:21;;;;;;;1.85;1.23;;;;;;;9.24;92.22;99035.63;10235685;28;19927;-78
2022/10/01 07:41:24;;;;;;;1.20;1.10;;;;;;;9.72;90.39;99052.41;10243693;28;20530;-79
2022/10/01 07:46:27;;;;;;;1.30;1.20;;;;;;;9.54;91.29;99060.41;10242853;28;20099;-77
2022/10/01 07:51:37;;;;;;;2.38;1.20;;;;;;;9.55;91.02;99062.13;10232025;28;20047;-78
2022/10/01 07:56:40;;;;;;;1.45;1.35;;;;;;;9.84;89.92;99072.66;10245710;28;20050;-78
2022/10/01 08:01:43;;;;;;;1.65;1.35;;;;;;;9.93;89.88;99081.69;10225347;28;20141;-80
2022/10/01 08:06:48;;;;;;;2.55;1.50;;;;;;;9.75;90.61;99073.56;10259781;28;20047;-79
2022/10/01 08:11:51;;;;;;;2.75;1.65;;;;;;;10.20;89.38;99080.75;10259941;28;20057;-80
2022/10/01 08:16:54;;;;;;;1.88;1.58;;;;;;;10.18;89.26;99074.72;10263285;28;20059;-80
2022/10/01 08:21:59;;;;;;;1.17;0.98;;;;;;;9.86;90.75;99092.16;10254195;28;20055;-78
2022/10/01 08:27:02;;;;;;;3.22;1.88;;;;;;;10.37;89.71;99081.75;10249829;28;20043;-79
2022/10/01 08:32:04;;;;;;;1.77;1.67;;;;;;;10.36;89.10;99090.78;10226853;28;20051;-79
2022/10/01 08:37:09;;;;;;;2.40;1.88;;;;;;;10.61;87.78;99084.63;10237642;28;22087;-79
2022/10/01 08:42:26;;;;;;;5.50;2.20;;;;;;;10.53;87.99;99095.31;10255988;28;20126;-77
2022/10/01 08:47:34;;;;;;;3.97;2.17;;;;;;;10.54;87.85;99107.72;10242728;28;20184;-79
2022/10/01 08:52:48;;;;;;;3.13;2.45;;;;;;;10.93;87.25;99110.03;10257208;28;20061;-80
2022/10/01 08:57:56;;;;;;;3.55;2.15;;;;;;;11.25;85.06;99112.09;10253816;28;20069;-80
2022/10/01 09:03:04;;;;;;;3.15;2.85;;;;;;;11.22;85.78;99117.81;10235253;28;20047;-80
2022/10/01 09:08:20;;;;;;;2.75;2.55;;;;;;;11.15;86.10;99114.06;10237069;28;20055;-80
2022/10/01 09:13:50;;;;;;;2.97;2.67;;;;;;;11.05;85.88;99124.03;10241646;28;20043;-79
2022/10/01 09:19:10;;;;;;;2.55;2.35;;;;;;;10.75;87.44;99134.25;10243011;28;20074;-81
2022/10/01 09:24:16;;;;;;;3.90;3.38;;;;;;;11.06;86.15;99145.38;10241264;28;20051;-79
2022/10/01 09:29:27;;;;;;;5.20;4.07;;;;;;;11.31;86.48;99145.56;10233218;28;20054;-80
2022/10/01 09:34:35;;;;;;;4.72;4.32;;;;;;;11.05;87.30;99165.22;10261359;28;20126;-81
2022/10/01 09:39:49;;;;;;;4.60;4.20;;;;;;;11.30;86.21;99153.78;10249867;28;20069;-79
2022/10/01 09:44:52;;;;;;;5.85;5.30;;;;;;;11.38;85.57;99156.53;10221416;28;20047;-79
2022/10/01 09:50:00;;;;;;;6.65;5.82;;;;;;;11.14;87.07;99171.50;10264428;28;20107;-80
2022/10/01 09:55:21;;;;;;;6.82;6.10;;;;;;;11.71;85.18;99169.16;10241881;28;20823;-79
2022/10/01 10:00:27;;;;;;;7.55;6.78;;;;;;;11.71;85.36;99168.28;10223193;28;20046;-78
2022/10/01 10:05:41;;;;;;;7.68;7.00;;;;;;;11.56;85.26;99173.44;10212150;28;20137;-79
2022/10/01 10:10:52;;;;;;;7.47;6.78;;;;;;;11.64;84.89;99173.47;10219390;28;20115;-78
2022/10/01 10:15:57;;;;;;;9.18;7.78;;;;;;;11.69;84.77;99175.69;10238069;28;20058;-79
2022/10/01 10:21:06;;;;;;;10.27;8.68;;;;;;;12.16;82.87;99154.50;10242990;28;20058;-78
2022/10/01 10:26:19;;;;;;;9.55;8.48;;;;;;;12.37;82.36;99180.16;10241527;28;20049;-79
2022/10/01 10:31:24;;;;;;;10.43;9.13;;;;;;;12.80;81.64;99186.25;10235013;28;20051;-79
2022/10/01 10:36:30;;;;;;;9.65;8.75;;;;;;;13.55;79.25;99185.19;10225800;28;20070;-80
2022/10/01 10:41:34;;;;;;;8.82;7.93;;;;;;;13.46;78.26;99184.38;10225808;28;20055;-78
2022/10/01 10:46:39;;;;;;;8.10;7.40;;;;;;;13.75;77.44;99186.50;10238257;28;20055;-80
2022/10/01 10:51:50;;;;;;;7.88;6.45;;;;;;;13.56;76.53;99197.69;10256845;28;20054;-80
2022/10/01 10:57:01;;;;;;;8.20;7.50;;;;;;;14.02;75.27;99197.88;10248943;28;20049;-80
2022/10/01 11:02:07;;;;;;;9.48;7.88;;;;;;;14.42;75.00;99196.81;10252152;28;20481;-81
2022/10/01 11:07:14;;;;;;;9.05;6.82;;;;;;;14.06;75.84;99200.03;10241598;28;20063;-81
2022/10/01 11:12:34;;;;;;;5.97;3.40;;;;;;;14.26;71.20;99196.88;10248657;28;20102;-82
2022/10/01 11:18:09;;;;;;;5.38;4.72;;;;;;;14.31;73.48;99198.03;10242356;28;20397;-81
2022/10/01 11:23:35;;;;;;;7.55;6.05;;;;;;;14.58;69.57;99198.59;10238407;28;21276;-80
2022/10/01 11:28:53;;;;;;;7.63;6.10;;;;;;;14.73;71.13;99201.38;10242071;28;20138;-77
2022/10/01 11:34:12;;;;;;;6.05;5.38;;;;;;;15.25;70.09;99208.72;10246423;28;20050;-80
2022/10/01 11:39:18;;;;;;;6.78;5.13;;;;;;;16.27;66.54;99203.56;10246861;28;20128;-79
2022/10/01 11:44:30;;;;;;;7.43;5.00;;;;;;;14.95;69.17;99213.22;10255109;28;20053;-79
2022/10/01 11:49:47;;;;;;;5.30;4.80;;;;;;;16.00;67.59;99206.94;10257742;28;20051;-81
2022/10/01 11:58:49;;;;;;;11.50;4.90;;;;;;;14.83;70.91;99213.59;10256672;28;20117;-80
2022/10/01 12:00:25;;;;;;;8.52;4.45;;;;;;;15.46;68.90;99208.88;10232916;28;20050;-80
2022/10/01 12:05:31;;;;;;;5.20;4.70;;;;;;;15.36;69.97;99223.69;10241500;28;20833;-78
2022/10/01 12:10:38;;;;;;;6.38;4.15;;;;;;;15.87;68.07;99221.13;10260120;28;20058;-80
2022/10/01 12:15:48;;;;;;;6.82;4.00;;;;;;;15.20;70.00;99220.09;10242274;28;20059;-78
2022/10/01 12:20:54;;;;;;;8.73;4.25;;;;;;;16.20;68.04;99226.16;10245819;28;20460;-77
2022/10/01 12:26:06;;;;;;;5.80;3.63;;;;;;;15.35;66.73;99263.44;10246300;28;20090;-79
2022/10/01 12:31:19;;;;;;;5.40;3.60;;;;;;;14.35;71.66;99237.19;10245779;28;20058;-80
2022/10/01 12:36:35;;;;;;;8.45;4.78;;;;;;;14.41;72.85;99241.09;10243150;28;20122;-79
2022/10/01 12:41:49;;;;;;;5.07;4.18;;;;;;;15.35;72.16;99246.34;10242665;28;20062;-78
2022/10/01 12:47:07;;;;;;;8.20;3.88;;;;;;;18.20;60.77;99248.66;10210641;28;20067;-78
2022/10/01 12:52:23;;;;;;;8.20;3.70;;;;;;;16.80;63.82;99266.50;10219487;28;20052;-80
2022/10/01 12:57:38;;;;;;;4.68;2.78;;;;;;;19.95;55.03;99259.66;10226357;28;20495;-79
2022/10/01 13:03:12;;;;;;;2.83;2.08;;;;;;;19.16;55.32;99264.06;10225250;28;20147;-78
2022/10/01 13:08:33;;;;;;;2.50;1.85;;;;;;;18.87;55.19;99265.25;10244546;28;20050;-80
2022/10/01 13:13:37;;;;;;;3.85;2.88;;;;;;;18.32;58.02;99267.94;10188811;28;20437;-79
2022/10/01 13:18:54;;;;;;;5.03;3.10;;;;;;;18.70;57.62;99262.03;10212735;28;20103;-79
2022/10/01 13:24:02;;;;;;;2.60;2.40;;;;;;;18.42;58.37;99262.97;10239796;28;20061;-79
2022/10/01 13:29:21;;;;;;;4.45;2.17;;;;;;;17.60;60.00;99261.84;10281203;28;20103;-80
2022/10/01 13:34:35;;;;;;;5.25;2.20;;;;;;;17.82;58.86;99269.94;10240768;28;20105;-79
2022/10/01 13:39:40;;;;;;;3.60;1.83;;;;;;;16.00;64.06;99297.16;10242846;28;20047;-79
2022/10/01 13:44:44;;;;;;;4.10;0.88;;;;;;;15.49;56.87;99394.38;10239291;28;20058;-79
2022/10/01 13:49:55;;;;;;;6.25;1.15;;;;;;;10.18;92.81;99412.81;10243783;28;20055;-76
2022/10/01 13:55:01;;;;;;;4.97;0.77;;;;;;;9.80;94.22;99395.78;10220127;28;20187;-77
2022/10/01 14:00:22;;;;;;;6.43;1.20;;;;;;;9.54;95.09;99406.22;10235629;28;20095;-77
2022/10/01 14:05:33;;;;;;;3.47;0.80;;;;;;;9.37;96.12;99417.66;10233368;28;20091;-77
2022/10/01 14:15:57;;;;;;;4.18;1.50;;;;;;;9.60;96.30;99412.84;10239778;28;20054;-77
2022/10/01 14:16:04;;;;;;;3.95;1.10;;;;;;;10.14;96.08;99408.72;10241769;28;20070;-78
2022/10/01 14:21:24;;;;;;;6.50;1.17;;;;;;;9.74;100.00;99409.75;10242433;28;20107;-78
2022/10/01 14:26:36;;;;;;;6.78;1.17;;;;;;;10.03;99.50;99419.63;10231328;28;20043;-77
2022/10/01 14:31:51;;;;;;;2.95;1.00;;;;;;;10.32;98.59;99430.28;10246860;28;20118;-77
2022/10/01 14:36:56;;;;;;;2.08;1.30;;;;;;;10.44;96.72;99442.53;10250925;28;20046;-77
2022/10/01 14:41:59;;;;;;;3.63;1.58;;;;;;;10.59;95.87;99450.97;10249813;28;20421;-77
2022/10/01 14:47:12;;;;;;;5.72;1.20;;;;;;;10.60;95.16;99445.44;10245836;28;20051;-77
2022/10/01 14:52:24;;;;;;;6.15;1.58;;;;;;;10.91;94.75;99442.47;10256079;28;21278;-77
2022/10/01 14:57:32;;;;;;;7.70;1.40;;;;;;;11.35;94.58;99431.06;10243544;28;20107;-79
2022/10/01 15:02:45;;;;;;;8.25;1.70;;;;;;;11.39;94.20;99437.84;10239645;28;20059;-79
2022/10/01 15:07:50;;;;;;;9.75;1.80;;;;;;;12.37;97.95;99444.91;10247240;28;21232;-78
2022/10/01 15:12:55;;;;;;;4.80;1.65;;;;;;;13.15;97.96;99443.91;10240667;28;20043;-78
2022/10/01 15:17:58;;;;;;;6.32;1.23;;;;;;;13.24;94.42;99450.16;10246186;28;20142;-78
2022/10/01 15:23:05;;;;;;;4.47;1.60;;;;;;;12.43;92.80;99470.34;10252110;28;20046;-79
2022/10/01 15:28:13;;;;;;;4.80;1.60;;;;;;;12.42;94.41;99483.97;10251496;28;20653;-80
2022/10/01 15:33:26;;;;;;;6.72;2.28;;;;;;;12.43;93.81;99485.69;10272444;28;20051;-80
2022/10/01 15:38:32;;;;;;;8.02;1.92;;;;;;;12.15;92.55;99494.69;10258314;28;20133;-78
2022/10/01 15:43:36;;;;;;;8.10;2.55;;;;;;;11.77;92.16;99493.19;10262011;28;20091;-80
2022/10/01 15:48:39;;;;;;;5.20;1.60;;;;;;;11.75;91.32;99507.78;10257448;28;20074;-78
2022/10/01 15:53:44;;;;;;;8.57;1.70;;;;;;;12.69;94.30;99515.28;10262261;28;20213;-78
2022/10/01 15:58:51;;;;;;;9.35;1.60;;;;;;;13.02;90.79;99521.69;10262215;28;20069;-78
2022/10/01 16:03:56;;;;;;;9.35;1.90;;;;;;;13.19;89.96;99536.97;10241623;28;20042;-79
2022/10/01 16:09:05;;;;;;;7.47;2.15;;;;;;;13.46;89.57;99535.88;10247341;28;20042;-79
2022/10/01 16:14:21;;;;;;;10.18;2.22;;;;;;;13.39;89.93;99548.34;10244318;28;20069;-79
2022/10/01 16:19:29;;;;;;;7.10;2.22;;;;;;;13.65;87.97;99552.81;10243164;28;20049;-79
2022/10/01 16:24:42;;;;;;;7.40;2.08;;;;;;;13.31;88.37;99575.25;10239072;28;20751;-79
2022/10/01 16:29:52;;;;;;;10.27;2.33;;;;;;;12.74;87.92;99577.63;10255300;28;20050;-80
2022/10/01 16:35:15;;;;;;;12.65;3.00;;;;;;;12.37;89.01;99581.41;10253807;28;20051;-78
2022/10/01 16:40:21;;;;;;;11.20;2.83;;;;;;;12.33;88.61;99594.31;10226798;28;20046;-78
2022/10/01 16:45:26;;;;;;;10.45;2.50;;;;;;;12.09;88.85;99604.81;10248218;28;20055;-79
2022/10/01 16:50:29;;;;;;;9.90;3.28;;;;;;;11.83;90.17;99623.56;10242393;28;20133;-78
2022/10/01 16:55:36;;;;;;;9.75;3.33;;;;;;;11.97;90.26;99630.28;10253639;28;20123;-80
2022/10/01 17:00:39;;;;;;;11.05;2.67;;;;;;;11.91;90.22;99643.34;10241172;28;20059;-79
2022/10/01 17:05:42;;;;;;;9.07;2.63;;;;;;;11.84;89.57;99649.47;10237845;28;20625;-80
2022/10/01 17:10:52;;;;;;;12.95;2.05;;;;;;;11.67;88.29;99664.56;10253893;28;20050;-79
2022/10/01 17:15:59;;;;;;;11.20;2.33;;;;;;;11.72;87.24;99673.88;10241147;28;20058;-79
2022/10/01 17:21:03;;;;;;;13.38;3.28;;;;;;;11.58;87.41;99681.63;10242040;28;20097;-80
2022/10/01 17:26:08;;;;;;;11.52;3.97;;;;;;;11.73;87.08;99688.19;10237940;28;20123;-80
2022/10/01 17:31:14;;;;;;;7.28;3.10;;;;;;;11.70;87.13;99702.78;10242831;28;20628;-78
2022/10/01 17:36:19;;;;;;;10.68;2.95;;;;;;;11.73;88.47;99709.69;10245259;28;20064;-81
2022/10/01 17:41:24;;;;;;;10.80;3.95;;;;;;;11.84;89.06;99722.13;10246285;28;20066;-78
2022/10/01 17:46:27;;;;;;;13.55;4.70;;;;;;;11.89;89.40;99736.81;10234920;28;20556;-78
2022/10/01 17:51:30;;;;;;;16.70;4.18;;;;;;;11.77;87.77;99739.88;10220741;28;21572;-77
2022/10/01 17:56:34;;;;;;;13.20;3.63;;;;;;;11.56;88.28;99749.00;10247557;28;20055;-78
2022/10/01 18:01:38;;;;;;;16.90;4.40;;;;;;;11.42;88.07;99750.31;10246677;28;20043;-78
2022/10/01 18:06:42;;;;;;;8.75;4.00;;;;;;;11.46;88.22;99754.41;10289326;28;20051;-77
2022/10/01 18:11:46;;;;;;;13.95;3.95;;;;;;;11.39;88.20;99768.56;10264865;28;20081;-78
2022/10/01 18:16:49;;;;;;;6.38;3.40;;;;;;;11.33;87.94;99780.75;10253890;28;20051;-79
2022/10/01 18:21:52;;;;;;;7.85;3.47;;;;;;;11.37;88.39;99795.59;10263017;28;20136;-78
2022/10/01 18:26:56;;;;;;;14.63;3.83;;;;;;;11.47;88.06;99796.44;10239618;28;20055;-78
2022/10/01 18:32:06;;;;;;;9.70;4.18;;;;;;;11.52;88.83;99812.16;10252025;28;20397;-78
2022/10/01 18:37:24;;;;;;;17.45;4.78;;;;;;;11.42;89.34;99816.69;10246354;28;20059;-79
2022/10/01 18:42:33;;;;;;;10.02;4.97;;;;;;;11.37;89.73;99816.28;10263659;28;20166;-79
2022/10/01 18:47:42;;;;;;;14.32;5.10;;;;;;;11.04;90.36;99829.13;10241133;28;21294;-78
2022/10/01 18:53:01;;;;;;;10.40;4.82;;;;;;;11.10;88.81;99835.78;10259549;28;20082;-78
2022/10/01 18:58:24;;;;;;;11.80;4.00;;;;;;;10.95;89.11;99854.16;10253634;28;20192;-77
2022/10/01 19:03:48;;;;;;;12.73;4.22;;;;;;;10.92;88.50;99867.88;10257497;28;20173;-78
2022/10/01 19:09:05;;;;;;;12.18;3.60;;;;;;;10.93;88.33;99888.38;10245942;28;20098;-79
2022/10/01 19:14:38;;;;;;;16.60;5.00;;;;;;;11.00;88.20;99889.53;10241620;28;20074;-78
2022/10/01 19:19:47;;;;;;;12.52;4.60;;;;;;;10.98;87.61;99889.66;10233520;28;21493;-79
2022/10/01 19:24:59;;;;;;;13.32;4.07;;;;;;;10.86;87.83;99900.66;10246017;28;20053;-79
2022/10/01 19:30:08;;;;;;;15.57;3.50;;;;;;;10.83;87.57;99907.16;10236161;28;20513;-78
2022/10/01 19:35:19;;;;;;;14.57;5.20;;;;;;;10.77;87.51;99913.06;10238689;28;20283;-79
2022/10/01 19:40:31;;;;;;;8.15;3.00;;;;;;;10.67;87.45;99931.88;10247151;28;20136;-78
2022/10/01 19:45:44;;;;;;;10.80;3.70;;;;;;;10.63;87.59;99933.09;10241192;28;20058;-79
2022/10/01 19:50:53;;;;;;;10.68;3.60;;;;;;;10.64;87.58;99936.63;10240134;28;20051;-80
2022/10/01 19:55:59;;;;;;;15.18;3.58;;;;;;;10.57;87.45;99945.25;10241911;28;20055;-79
2022/10/01 20:01:04;;;;;;;7.47;3.50;;;;;;;10.71;87.18;99943.19;10249317;28;20118;-78
2022/10/01 20:06:17;;;;;;;10.32;2.95;;;;;;;10.81;86.77;99962.88;10247589;28;20401;-78
2022/10/01 20:11:29;;;;;;;12.45;4.10;;;;;;;10.96;86.06;99972.25;10252057;28;20746;-78
2022/10/01 20:16:40;;;;;;;10.65;2.67;;;;;;;10.96;85.39;99983.00;10247890;28;20126;-78
2022/10/01 20:21:54;;;;;;;11.35;3.20;;;;;;;10.91;85.81;99982.53;10249068;28;20051;-79
2022/10/01 20:27:10;;;;;;;9.82;2.60;;;;;;;10.82;85.77;99996.81;10247591;28;21767;-79
2022/10/01 20:32:21;;;;;;;15.05;3.42;;;;;;;10.87;84.91;100009.84;10235132;28;20061;-78
2022/10/01 20:37:42;;;;;;;10.30;3.47;;;;;;;10.93;85.05;100007.47;10238004;28;20110;-77
2022/10/01 20:42:50;;;;;;;9.18;2.92;;;;;;;10.63;85.93;100027.13;10237377;28;20063;-78
2022/10/01 20:47:58;;;;;;;17.05;3.45;;;;;;;10.61;86.75;100034.44;10235835;28;20051;-77
2022/10/01 20:53:12;;;;;;;11.90;3.17;;;;;;;10.53;87.75;100031.56;10234637;28;20045;-78
2022/10/01 20:58:22;;;;;;;9.68;2.90;;;;;;;10.38;88.37;100039.13;10246273;28;20055;-78
2022/10/01 21:03:33;;;;;;;14.18;3.80;;;;;;;10.43;88.22;100033.38;10251549;28;20057;-77
2022/10/01 21:08:45;;;;;;;19.10;4.35;;;;;;;10.43;88.15;100033.38;10248853;28;20050;-78
2022/10/01 21:13:55;;;;;;;10.63;3.03;;;;;;;10.34;88.42;100035.88;10258304;28;20179;-78
2022/10/01 21:19:11;;;;;;;10.30;2.97;;;;;;;10.34;88.06;100043.91;10251441;28;20512;-78
2022/10/01 21:24:33;;;;;;;10.43;3.05;;;;;;;10.20;88.94;100052.28;10240761;28;20043;-78
2022/10/01 21:29:51;;;;;;;15.85;3.65;;;;;;;10.26;89.48;100067.03;10234783;28;20069;-77
2022/10/01 21:35:05;;;;;;;14.77;3.70;;;;;;;10.22;90.00;100063.75;10239316;28;20559;-77
2022/10/01 21:40:21;;;;;;;10.30;2.17;;;;;;;10.11;90.41;100051.22;10229653;28;20620;-77
2022/10/01 21:45:32;;;;;;;18.35;3.53;;;;;;;10.29;88.92;100051.50;10232663;28;20054;-78
2022/10/01 21:50:54;;;;;;;11.00;2.70;;;;;;;10.36;87.87;100070.63;10232477;28;20055;-77
2022/10/01 21:56:12;;;;;;;14.25;2.75;;;;;;;10.33;86.74;100077.09;10236617;28;20047;-78
2022/10/01 22:01:20;;;;;;;12.80;2.20;;;;;;;10.43;85.22;100087.06;10249077;28;20079;-78
2022/10/01 22:06:31;;;;;;;11.13;2.60;;;;;;;10.27;85.08;100084.84;10282795;28;20051;-78
2022/10/01 22:11:39;;;;;;;10.60;1.95;;;;;;;10.31;85.88;100080.91;10298641;28;20050;-79
2022/10/01 22:16:50;;;;;;;13.95;3.40;;;;;;;10.32;85.82;100102.25;10298717;28;20070;-78
2022/10/01 22:22:01;;;;;;;10.63;2.05;;;;;;;10.44;84.53;100103.03;10300562;28;20051;-79
2022/10/01 22:27:10;;;;;;;6.75;1.95;;;;;;;10.27;84.37;100109.00;10302923;28;20054;-78
2022/10/01 22:32:17;;;;;;;5.78;2.05;;;;;;;10.30;84.11;100095.31;10304616;28;20046;-77
2022/10/01 22:37:26;;;;;;;7.82;1.50;;;;;;;10.25;84.15;100119.00;10282607;28;20043;-79
2022/10/01 22:42:35;;;;;;;5.95;1.70;;;;;;;10.09;84.10;100120.31;10279352;28;20050;-78
2022/10/01 22:47:50;;;;;;;3.63;1.42;;;;;;;10.09;83.82;100122.09;10271698;28;20102;-80
2022/10/01 22:53:06;;;;;;;5.30;1.65;;;;;;;10.00;84.34;100121.03;10270714;28;20082;-80
2022/10/01 22:58:24;;;;;;;9.95;1.90;;;;;;;10.07;83.81;100124.09;10278616;28;20046;-80
2022/10/01 23:03:41;;;;;;;8.65;1.70;;;;;;;9.88;84.57;100125.59;10277279;28;20081;-80
2022/10/01 23:08:50;;;;;;;7.53;1.48;;;;;;;10.04;84.04;100138.63;10263499;28;20070;-80
2022/10/01 23:14:04;;;;;;;7.63;1.52;;;;;;;9.99;84.82;100137.28;10274430;28;20086;-81
2022/10/01 23:19:25;;;;;;;8.18;2.10;;;;;;;9.75;85.89;100143.66;10281993;28;20100;-80
2022/10/01 23:24:43;;;;;;;7.82;2.00;;;;;;;9.96;86.24;100148.28;10272527;28;20476;-80
2022/10/01 23:30:02;;;;;;;8.63;1.90;;;;;;;10.08;85.58;100147.25;10275631;28;20082;-78
2022/10/01 23:35:13;;;;;;;13.60;2.40;;;;;;;10.03;86.03;100152.16;10277039;28;20077;-80
2022/10/01 23:40:20;;;;;;;8.85;2.20;;;;;;;10.12;86.06;100171.03;10273637;28;20075;-80
2022/10/01 23:45:27;;;;;;;13.02;3.03;;;;;;;10.35;85.48;100174.50;10288193;28;20051;-79
2022/10/01 23:50:34;;;;;;;17.88;3.38;;;;;;;10.49;84.95;100175.16;10284085;28;20075;-79
